VLLB

Details ICAO VLLB (LPQ)
Name LUANG PHABANG INTL
Region Laos
Timezone Asia/Vientiane (UTC+7.0)
Plans Departing 24
Arriving 36
Stats Elevation 955 ft / 291 m (AMSL)
Location 19.897255° 102.160844°
Runways 1
Magnetic Variation 0.994° W
Sunrise 2017-12-16 23:40:46 UTC / 2017-12-17 06:40:46 Local
Sunset 2017-12-17 10:36:39 UTC / 2017-12-17 17:36:39 Local
Advertisement - Login to hide

Runways

ID Width Length Bearing (true) Bearing (mag) Surface Threshold Offset Overrun Length
06 148 ft / 45 m 7,224 ft / 2,202 m 61.07° 62.06° Asphalt 0 ft / 0 m 195 ft / 59 m
24 148 ft / 45 m 7,224 ft / 2,202 m 241.07° 242.06° Asphalt 0 ft / 0 m 195 ft / 59 m

Map

Weather


0- 5 10 15 20 25 30 35+ Temperature / ° C

Clouds and Precipitation
Forecast for 2017-12-17 06:00 UTC. Updated an hour ago

Ground ~20,000 ft ~40,000 ft Winds

METAR

VLLB 170200Z 02008KT 9999 SCT017 SCT060 BKN080 20/12 Q1024

TAF

TAF VLLB 162300Z 1700/1724 04008KT 4000 BR SCT010 SCT060 BKN080 TEMPO 1705/1710 8000 SCT018 BKN060 BKN080

Frequencies

Tower 118.50 MHz TWR
Approach 118.50 MHz APP
Warning: Do not use this data for real-world aviation or navigation. No guarantee of current accuracy is given.